sensor_id;sensor_type;location;lat;lon;timestamp;pressure;altitude;pressure_sealevel;temperature;humidity
740;BME280;354;42.694;23.336;2022-07-23T00:01:26;95548.50;;;21.09;100.00
740;BME280;354;42.694;23.336;2022-07-23T00:03:53;95548.78;;;21.08;100.00
740;BME280;354;42.694;23.336;2022-07-23T00:06:20;95554.63;;;21.15;100.00
740;BME280;354;42.694;23.336;2022-07-23T00:08:45;95552.25;;;21.08;100.00
740;BME280;354;42.694;23.336;2022-07-23T00:11:10;95531.69;;;20.83;100.00
740;BME280;354;42.694;23.336;2022-07-23T00:13:36;95551.44;;;20.92;100.00
740;BME280;354;42.694;23.336;2022-07-23T00:16:02;95557.34;;;20.94;100.00
740;BME280;354;42.694;23.336;2022-07-23T00:18:27;95550.66;;;20.92;100.00
740;BME280;354;42.694;23.336;2022-07-23T00:20:53;95554.69;;;20.94;100.00
740;BME280;354;42.694;23.336;2022-07-23T00:23:18;95551.44;;;20.82;100.00
740;BME280;354;42.694;23.336;2022-07-23T00:25:44;95552.53;;;20.66;100.00
740;BME280;354;42.694;23.336;2022-07-23T00:28:11;95558.69;;;20.71;100.00
740;BME280;354;42.694;23.336;2022-07-23T00:30:36;95565.06;;;20.65;100.00
740;BME280;354;42.694;23.336;2022-07-23T00:33:07;95562.66;;;20.53;100.00
740;BME280;354;42.694;23.336;2022-07-23T00:35:34;95565.81;;;20.40;100.00
740;BME280;354;42.694;23.336;2022-07-23T00:38:02;95561.56;;;20.39;100.00
740;BME280;354;42.694;23.336;2022-07-23T00:40:28;95565.00;;;20.30;100.00
740;BME280;354;42.694;23.336;2022-07-23T00:42:54;95562.59;;;20.23;100.00
740;BME280;354;42.694;23.336;2022-07-23T00:45:20;95562.63;;;20.38;100.00
740;BME280;354;42.694;23.336;2022-07-23T00:47:45;95552.19;;;20.37;100.00
740;BME280;354;42.694;23.336;2022-07-23T00:50:11;95565.78;;;20.25;100.00
740;BME280;354;42.694;23.336;2022-07-23T00:52:37;95559.91;;;20.23;100.00
740;BME280;354;42.694;23.336;2022-07-23T00:55:04;95556.16;;;20.24;100.00
740;BME280;354;42.694;23.336;2022-07-23T00:57:30;95559.63;;;20.24;100.00
740;BME280;354;42.694;23.336;2022-07-23T00:59:56;95560.44;;;20.25;100.00
740;BME280;354;42.694;23.336;2022-07-23T01:02:23;95559.63;;;20.19;100.00
740;BME280;354;42.694;23.336;2022-07-23T01:04:49;95564.19;;;20.29;100.00
740;BME280;354;42.694;23.336;2022-07-23T01:07:14;95563.91;;;20.20;100.00
740;BME280;354;42.694;23.336;2022-07-23T01:09:40;95562.53;;;20.08;100.00
740;BME280;354;42.694;23.336;2022-07-23T01:12:06;95561.72;;;20.02;100.00
740;BME280;354;42.694;23.336;2022-07-23T01:14:32;95561.75;;;20.07;100.00
740;BME280;354;42.694;23.336;2022-07-23T01:16:57;95550.78;;;20.09;100.00
740;BME280;354;42.694;23.336;2022-07-23T01:19:22;95555.03;;;20.05;100.00
740;BME280;354;42.694;23.336;2022-07-23T01:21:50;95548.63;;;20.00;100.00
740;BME280;354;42.694;23.336;2022-07-23T01:24:16;95543.28;;;19.95;100.00
740;BME280;354;42.694;23.336;2022-07-23T01:26:46;95553.41;;;19.98;100.00
740;BME280;354;42.694;23.336;2022-07-23T01:29:12;95541.06;;;19.82;100.00
740;BME280;354;42.694;23.336;2022-07-23T01:31:37;95548.03;;;19.78;100.00
740;BME280;354;42.694;23.336;2022-07-23T01:34:03;95549.03;;;19.67;100.00
740;BME280;354;42.694;23.336;2022-07-23T01:36:29;95550.13;;;19.76;100.00
740;BME280;354;42.694;23.336;2022-07-23T01:38:55;95546.88;;;19.64;100.00
740;BME280;354;42.694;23.336;2022-07-23T01:41:20;95544.75;;;19.66;100.00
740;BME280;354;42.694;23.336;2022-07-23T01:43:45;95543.91;;;19.60;100.00
740;BME280;354;42.694;23.336;2022-07-23T01:46:11;95545.81;;;19.65;100.00
740;BME280;354;42.694;23.336;2022-07-23T01:48:37;95555.41;;;19.66;100.00
740;BME280;354;42.694;23.336;2022-07-23T01:51:02;95534.22;;;19.49;100.00
740;BME280;354;42.694;23.336;2022-07-23T01:53:28;95547.53;;;19.44;100.00
740;BME280;354;42.694;23.336;2022-07-23T01:55:56;95551.03;;;19.49;100.00
740;BME280;354;42.694;23.336;2022-07-23T01:58:21;95549.47;;;19.54;100.00
740;BME280;354;42.694;23.336;2022-07-23T02:00:47;95552.41;;;19.52;100.00
740;BME280;354;42.694;23.336;2022-07-23T02:03:12;95552.09;;;19.48;100.00
740;BME280;354;42.694;23.336;2022-07-23T02:05:38;95554.28;;;19.52;100.00
740;BME280;354;42.694;23.336;2022-07-23T02:08:03;95555.88;;;19.53;100.00
740;BME280;354;42.694;23.336;2022-07-23T02:10:28;95556.16;;;19.56;100.00
740;BME280;354;42.694;23.336;2022-07-23T02:12:54;95553.19;;;19.47;100.00
740;BME280;354;42.694;23.336;2022-07-23T02:15:20;95552.38;;;19.47;100.00
740;BME280;354;42.694;23.336;2022-07-23T02:17:45;95551.03;;;19.49;100.00
740;BME280;354;42.694;23.336;2022-07-23T02:20:11;95546.75;;;19.43;100.00
740;BME280;354;42.694;23.336;2022-07-23T02:22:37;95553.94;;;19.43;100.00
740;BME280;354;42.694;23.336;2022-07-23T02:25:07;95556.34;;;19.39;100.00
740;BME280;354;42.694;23.336;2022-07-23T02:27:33;95559.44;;;19.26;100.00
740;BME280;354;42.694;23.336;2022-07-23T02:29:59;95560.22;;;19.21;100.00
740;BME280;354;42.694;23.336;2022-07-23T02:32:24;95539.59;;;19.07;100.00
740;BME280;354;42.694;23.336;2022-07-23T02:34:50;95549.97;;;19.03;100.00
740;BME280;354;42.694;23.336;2022-07-23T02:37:16;95556.06;;;18.99;100.00
740;BME280;354;42.694;23.336;2022-07-23T02:39:41;95550.47;;;19.00;100.00
740;BME280;354;42.694;23.336;2022-07-23T02:42:07;95560.81;;;18.91;100.00
740;BME280;354;42.694;23.336;2022-07-23T02:44:33;95562.72;;;18.96;100.00
740;BME280;354;42.694;23.336;2022-07-23T02:46:58;95550.16;;;18.91;100.00
740;BME280;354;42.694;23.336;2022-07-23T02:49:24;95573.13;;;18.98;100.00
740;BME280;354;42.694;23.336;2022-07-23T02:51:49;95559.50;;;18.94;100.00
740;BME280;354;42.694;23.336;2022-07-23T02:54:15;95571.16;;;18.88;100.00
740;BME280;354;42.694;23.336;2022-07-23T02:56:40;95570.28;;;18.77;100.00
740;BME280;354;42.694;23.336;2022-07-23T02:59:06;95572.38;;;18.70;100.00
740;BME280;354;42.694;23.336;2022-07-23T03:01:31;95567.50;;;18.67;100.00
740;BME280;354;42.694;23.336;2022-07-23T03:03:57;95573.66;;;18.67;100.00
740;BME280;354;42.694;23.336;2022-07-23T03:06:22;95578.75;;;18.69;100.00
740;BME280;354;42.694;23.336;2022-07-23T03:08:48;95580.63;;;18.68;100.00
740;BME280;354;42.694;23.336;2022-07-23T03:11:14;95580.53;;;18.63;100.00
740;BME280;354;42.694;23.336;2022-07-23T03:13:40;95586.06;;;18.57;100.00
740;BME280;354;42.694;23.336;2022-07-23T03:16:05;95580.22;;;18.60;100.00
740;BME280;354;42.694;23.336;2022-07-23T03:18:32;95588.97;;;18.55;100.00
740;BME280;354;42.694;23.336;2022-07-23T03:20:57;95600.94;;;18.53;100.00
740;BME280;354;42.694;23.336;2022-07-23T03:23:23;95596.69;;;18.52;100.00
740;BME280;354;42.694;23.336;2022-07-23T03:25:48;95595.72;;;18.63;100.00
740;BME280;354;42.694;23.336;2022-07-23T03:28:14;95601.06;;;18.63;100.00
740;BME280;354;42.694;23.336;2022-07-23T03:30:44;95600.53;;;18.66;100.00
740;BME280;354;42.694;23.336;2022-07-23T03:33:12;95597.53;;;18.57;100.00
740;BME280;354;42.694;23.336;2022-07-23T03:35:37;95575.91;;;18.54;100.00
740;BME280;354;42.694;23.336;2022-07-23T03:38:03;95596.13;;;18.77;100.00
740;BME280;354;42.694;23.336;2022-07-23T03:40:28;95601.81;;;18.85;100.00
740;BME280;354;42.694;23.336;2022-07-23T03:42:54;95600.53;;;18.93;100.00
740;BME280;354;42.694;23.336;2022-07-23T03:45:19;95610.47;;;19.03;100.00
740;BME280;354;42.694;23.336;2022-07-23T03:47:44;95601.47;;;19.09;100.00
740;BME280;354;42.694;23.336;2022-07-23T03:50:10;95581.69;;;19.05;100.00
740;BME280;354;42.694;23.336;2022-07-23T03:52:36;95600.00;;;19.28;100.00
740;BME280;354;42.694;23.336;2022-07-23T03:55:02;95609.66;;;19.34;100.00
740;BME280;354;42.694;23.336;2022-07-23T03:57:28;95607.25;;;19.38;100.00
740;BME280;354;42.694;23.336;2022-07-23T03:59:53;95610.25;;;19.46;100.00
740;BME280;354;42.694;23.336;2022-07-23T04:02:19;95607.09;;;19.55;100.00
740;BME280;354;42.694;23.336;2022-07-23T04:04:44;95608.78;;;19.66;100.00
740;BME280;354;42.694;23.336;2022-07-23T04:07:10;95609.16;;;19.80;100.00
740;BME280;354;42.694;23.336;2022-07-23T04:09:35;95604.66;;;19.90;100.00
740;BME280;354;42.694;23.336;2022-07-23T04:12:00;95615.06;;;19.92;100.00
740;BME280;354;42.694;23.336;2022-07-23T04:14:26;95609.75;;;19.97;100.00
740;BME280;354;42.694;23.336;2022-07-23T04:16:51;95609.78;;;20.02;100.00
740;BME280;354;42.694;23.336;2022-07-23T04:19:17;95608.75;;;20.13;100.00
740;BME280;354;42.694;23.336;2022-07-23T04:21:42;95608.63;;;20.50;100.00
740;BME280;354;42.694;23.336;2022-07-23T04:24:08;95612.44;;;21.00;100.00
740;BME280;354;42.694;23.336;2022-07-23T04:26:33;95614.31;;;21.36;100.00
740;BME280;354;42.694;23.336;2022-07-23T04:28:58;95615.25;;;21.96;100.00
740;BME280;354;42.694;23.336;2022-07-23T04:31:24;95617.19;;;22.50;100.00
740;BME280;354;42.694;23.336;2022-07-23T04:33:49;95615.13;;;22.81;100.00
740;BME280;354;42.694;23.336;2022-07-23T04:36:15;95615.09;;;22.86;100.00
740;BME280;354;42.694;23.336;2022-07-23T04:38:41;95616.56;;;23.07;100.00
740;BME280;354;42.694;23.336;2022-07-23T04:41:06;95620.88;;;23.37;100.00
740;BME280;354;42.694;23.336;2022-07-23T04:43:31;95617.97;;;23.92;100.00
740;BME280;354;42.694;23.336;2022-07-23T04:45:57;95620.72;;;24.35;100.00
740;BME280;354;42.694;23.336;2022-07-23T04:48:22;95613.44;;;24.92;94.89
740;BME280;354;42.694;23.336;2022-07-23T04:50:48;95633.72;;;26.01;88.76
740;BME280;354;42.694;23.336;2022-07-23T04:53:13;95645.91;;;26.12;84.93
740;BME280;354;42.694;23.336;2022-07-23T04:55:39;95635.09;;;26.67;78.87
740;BME280;354;42.694;23.336;2022-07-23T04:58:04;95645.22;;;26.98;78.93
740;BME280;354;42.694;23.336;2022-07-23T05:00:29;95624.91;;;27.37;75.75
740;BME280;354;42.694;23.336;2022-07-23T05:02:55;95630.94;;;27.96;72.08
740;BME280;354;42.694;23.336;2022-07-23T05:05:20;95632.59;;;28.05;69.56
740;BME280;354;42.694;23.336;2022-07-23T05:07:45;95636.91;;;28.72;67.40
740;BME280;354;42.694;23.336;2022-07-23T05:10:11;95632.69;;;29.23;64.86
740;BME280;354;42.694;23.336;2022-07-23T05:12:36;95638.53;;;29.43;62.68
740;BME280;354;42.694;23.336;2022-07-23T05:15:02;95632.69;;;29.23;61.44
740;BME280;354;42.694;23.336;2022-07-23T05:17:27;95643.06;;;30.11;59.78
740;BME280;354;42.694;23.336;2022-07-23T05:19:53;95645.00;;;30.32;57.62
740;BME280;354;42.694;23.336;2022-07-23T05:22:18;95648.66;;;30.44;55.60
740;BME280;354;42.694;23.336;2022-07-23T05:24:44;95650.66;;;31.07;55.23
740;BME280;354;42.694;23.336;2022-07-23T05:27:09;95648.91;;;31.23;54.01
740;BME280;354;42.694;23.336;2022-07-23T05:29:34;95645.38;;;32.10;50.82
740;BME280;354;42.694;23.336;2022-07-23T05:32:00;95642.47;;;32.39;48.99
740;BME280;354;42.694;23.336;2022-07-23T05:34:25;95649.00;;;32.87;47.18
740;BME280;354;42.694;23.336;2022-07-23T05:36:51;95646.50;;;32.94;47.37
740;BME280;354;42.694;23.336;2022-07-23T05:39:16;95647.75;;;33.37;46.16
740;BME280;354;42.694;23.336;2022-07-23T05:41:41;95648.56;;;33.66;44.66
740;BME280;354;42.694;23.336;2022-07-23T05:44:07;95646.94;;;33.49;45.51
740;BME280;354;42.694;23.336;2022-07-23T05:46:32;95651.56;;;33.20;45.28
740;BME280;354;42.694;23.336;2022-07-23T05:48:57;95658.97;;;33.76;44.12
740;BME280;354;42.694;23.336;2022-07-23T05:51:24;95651.78;;;33.99;43.31
740;BME280;354;42.694;23.336;2022-07-23T05:53:51;95646.50;;;34.70;41.61
740;BME280;354;42.694;23.336;2022-07-23T05:56:17;95657.91;;;35.26;41.27
740;BME280;354;42.694;23.336;2022-07-23T05:58:43;95654.22;;;35.38;40.63
740;BME280;354;42.694;23.336;2022-07-23T06:01:09;95651.25;;;35.27;40.15
740;BME280;354;42.694;23.336;2022-07-23T06:03:34;95643.41;;;34.71;39.94
740;BME280;354;42.694;23.336;2022-07-23T06:05:59;95655.31;;;35.14;38.39
740;BME280;354;42.694;23.336;2022-07-23T06:08:25;95643.81;;;35.24;39.60
740;BME280;354;42.694;23.336;2022-07-23T06:10:50;95642.63;;;34.71;40.46
740;BME280;354;42.694;23.336;2022-07-23T06:13:17;95642.81;;;34.30;40.80
740;BME280;354;42.694;23.336;2022-07-23T06:15:43;95638.31;;;34.70;40.16
740;BME280;354;42.694;23.336;2022-07-23T06:18:08;95639.72;;;34.64;41.89
740;BME280;354;42.694;23.336;2022-07-23T06:20:34;95642.19;;;35.04;40.08
740;BME280;354;42.694;23.336;2022-07-23T06:22:59;95640.00;;;35.48;38.04
740;BME280;354;42.694;23.336;2022-07-23T06:25:24;95646.38;;;35.75;38.25
740;BME280;354;42.694;23.336;2022-07-23T06:27:50;95638.56;;;35.97;38.09
740;BME280;354;42.694;23.336;2022-07-23T06:30:15;95633.75;;;35.90;38.24
740;BME280;354;42.694;23.336;2022-07-23T06:32:42;95629.06;;;35.48;39.50
740;BME280;354;42.694;23.336;2022-07-23T06:35:08;95621.84;;;35.01;39.46
740;BME280;354;42.694;23.336;2022-07-23T06:37:33;95636.56;;;34.62;40.46
740;BME280;354;42.694;23.336;2022-07-23T06:39:59;95636.97;;;35.53;38.31
740;BME280;354;42.694;23.336;2022-07-23T06:42:24;95634.44;;;36.29;37.76
740;BME280;354;42.694;23.336;2022-07-23T06:44:50;95630.59;;;35.88;38.28
740;BME280;354;42.694;23.336;2022-07-23T06:47:15;95634.59;;;36.40;37.71
740;BME280;354;42.694;23.336;2022-07-23T06:49:41;95637.06;;;36.72;36.32
740;BME280;354;42.694;23.336;2022-07-23T06:52:07;95635.00;;;36.91;35.79
740;BME280;354;42.694;23.336;2022-07-23T06:54:32;95639.28;;;37.83;35.26
740;BME280;354;42.694;23.336;2022-07-23T06:56:58;95629.09;;;37.50;33.52
740;BME280;354;42.694;23.336;2022-07-23T06:59:23;95628.22;;;36.55;34.74
740;BME280;354;42.694;23.336;2022-07-23T07:01:48;95632.47;;;37.36;34.72
740;BME280;354;42.694;23.336;2022-07-23T07:04:14;95627.25;;;37.27;34.35
740;BME280;354;42.694;23.336;2022-07-23T07:06:39;95635.91;;;37.63;33.31
740;BME280;354;42.694;23.336;2022-07-23T07:09:04;95634.91;;;37.78;33.00
740;BME280;354;42.694;23.336;2022-07-23T07:11:30;95625.03;;;37.06;33.26
740;BME280;354;42.694;23.336;2022-07-23T07:13:55;95623.13;;;36.84;32.85
740;BME280;354;42.694;23.336;2022-07-23T07:16:21;95611.03;;;37.15;33.69
740;BME280;354;42.694;23.336;2022-07-23T07:18:46;95612.75;;;36.21;34.73
740;BME280;354;42.694;23.336;2022-07-23T07:21:11;95617.81;;;35.53;36.17
740;BME280;354;42.694;23.336;2022-07-23T07:23:37;95616.72;;;34.65;37.39
740;BME280;354;42.694;23.336;2022-07-23T07:26:02;95604.66;;;33.71;37.38
740;BME280;354;42.694;23.336;2022-07-23T07:28:28;95600.44;;;32.89;38.46
740;BME280;354;42.694;23.336;2022-07-23T07:30:53;95599.91;;;31.98;40.91
740;BME280;354;42.694;23.336;2022-07-23T07:33:18;95593.41;;;31.90;41.86
740;BME280;354;42.694;23.336;2022-07-23T07:35:44;95592.88;;;31.64;40.82
740;BME280;354;42.694;23.336;2022-07-23T07:38:10;95599.28;;;30.93;43.06
740;BME280;354;42.694;23.336;2022-07-23T07:40:35;95597.56;;;30.67;43.03
740;BME280;354;42.694;23.336;2022-07-23T07:43:00;95590.81;;;31.15;43.32
740;BME280;354;42.694;23.336;2022-07-23T07:45:28;95584.84;;;31.55;43.41
740;BME280;354;42.694;23.336;2022-07-23T07:47:53;95590.47;;;32.08;42.80
740;BME280;354;42.694;23.336;2022-07-23T07:50:20;95595.94;;;32.44;42.75
740;BME280;354;42.694;23.336;2022-07-23T07:52:45;95585.03;;;31.95;42.59
740;BME280;354;42.694;23.336;2022-07-23T07:55:11;95586.50;;;31.47;43.81
740;BME280;354;42.694;23.336;2022-07-23T07:57:37;95573.44;;;31.08;45.40
740;BME280;354;42.694;23.336;2022-07-23T08:00:07;95578.78;;;30.83;45.38
740;BME280;354;42.694;23.336;2022-07-23T08:02:50;95587.44;;;30.77;44.45
740;BME280;354;42.694;23.336;2022-07-23T08:05:24;95577.72;;;30.46;45.75
740;BME280;354;42.694;23.336;2022-07-23T08:07:50;95579.59;;;30.25;45.59
740;BME280;354;42.694;23.336;2022-07-23T08:10:15;95570.72;;;30.15;45.20
740;BME280;354;42.694;23.336;2022-07-23T08:12:46;95574.88;;;30.04;45.16
740;BME280;354;42.694;23.336;2022-07-23T08:15:14;95578.88;;;30.07;43.98
740;BME280;354;42.694;23.336;2022-07-23T08:17:41;95572.66;;;30.06;44.46
740;BME280;354;42.694;23.336;2022-07-23T08:20:07;95568.97;;;30.11;44.21
740;BME280;354;42.694;23.336;2022-07-23T08:25:08;95568.84;;;30.37;45.91
740;BME280;354;42.694;23.336;2022-07-23T08:27:33;95562.28;;;30.38;44.91
740;BME280;354;42.694;23.336;2022-07-23T08:29:59;95570.53;;;30.50;45.16
740;BME280;354;42.694;23.336;2022-07-23T08:32:24;95559.78;;;30.54;45.64
740;BME280;354;42.694;23.336;2022-07-23T08:34:49;95564.50;;;30.44;44.15
740;BME280;354;42.694;23.336;2022-07-23T08:37:15;95552.88;;;30.35;44.53
740;BME280;354;42.694;23.336;2022-07-23T08:39:40;95563.47;;;30.49;43.97
740;BME280;354;42.694;23.336;2022-07-23T08:42:07;95563.63;;;30.53;44.97
740;BME280;354;42.694;23.336;2022-07-23T08:44:34;95563.03;;;30.47;46.08
740;BME280;354;42.694;23.336;2022-07-23T08:47:00;95568.53;;;30.59;45.09
740;BME280;354;42.694;23.336;2022-07-23T08:49:27;95558.94;;;30.62;45.51
740;BME280;354;42.694;23.336;2022-07-23T08:51:54;95562.75;;;30.40;46.59
740;BME280;354;42.694;23.336;2022-07-23T08:54:21;95559.91;;;30.36;46.00
740;BME280;354;42.694;23.336;2022-07-23T08:56:47;95560.69;;;30.37;44.63
740;BME280;354;42.694;23.336;2022-07-23T08:59:13;95547.59;;;30.39;44.70
740;BME280;354;42.694;23.336;2022-07-23T09:01:39;95549.72;;;30.54;44.54
740;BME280;354;42.694;23.336;2022-07-23T09:04:04;95547.41;;;30.65;43.64
740;BME280;354;42.694;23.336;2022-07-23T09:06:30;95544.25;;;30.84;45.25
740;BME280;354;42.694;23.336;2022-07-23T09:08:55;95540.50;;;31.09;46.23
740;BME280;354;42.694;23.336;2022-07-23T09:11:21;95536.50;;;31.28;45.66
740;BME280;354;42.694;23.336;2022-07-23T09:13:51;95535.41;;;31.41;43.08
740;BME280;354;42.694;23.336;2022-07-23T09:16:24;95535.09;;;31.55;47.45
740;BME280;354;42.694;23.336;2022-07-23T09:19:01;95534.53;;;31.73;43.67
740;BME280;354;42.694;23.336;2022-07-23T09:21:29;95519.25;;;31.69;42.85
740;BME280;354;42.694;23.336;2022-07-23T09:26:42;95537.03;;;31.54;42.34
740;BME280;354;42.694;23.336;2022-07-23T09:29:13;95532.03;;;31.56;42.36
740;BME280;354;42.694;23.336;2022-07-23T09:31:58;95536.59;;;31.77;43.82
740;BME280;354;42.694;23.336;2022-07-23T09:34:31;95531.06;;;31.85;40.19
740;BME280;354;42.694;23.336;2022-07-23T09:39:34;95523.59;;;31.94;37.21
740;BME280;354;42.694;23.336;2022-07-23T09:44:48;95518.00;;;32.40;38.78
740;BME280;354;42.694;23.336;2022-07-23T09:47:14;95521.63;;;32.19;35.91
740;BME280;354;42.694;23.336;2022-07-23T09:49:39;95519.97;;;32.15;35.67
740;BME280;354;42.694;23.336;2022-07-23T09:52:05;95499.75;;;32.16;38.25
740;BME280;354;42.694;23.336;2022-07-23T09:54:39;95513.78;;;32.30;36.87
740;BME280;354;42.694;23.336;2022-07-23T09:57:07;95513.13;;;32.45;38.17
740;BME280;354;42.694;23.336;2022-07-23T09:59:36;95515.78;;;32.70;38.45
740;BME280;354;42.694;23.336;2022-07-23T10:02:04;95500.78;;;32.76;36.98
740;BME280;354;42.694;23.336;2022-07-23T10:04:31;95489.63;;;32.81;36.74
740;BME280;354;42.694;23.336;2022-07-23T10:06:59;95494.38;;;32.84;36.80
740;BME280;354;42.694;23.336;2022-07-23T10:09:27;95494.19;;;33.05;37.00
740;BME280;354;42.694;23.336;2022-07-23T10:11:57;95500.81;;;33.20;36.20
740;BME280;354;42.694;23.336;2022-07-23T10:14:49;95485.88;;;33.29;37.30
740;BME280;354;42.694;23.336;2022-07-23T10:17:15;95471.44;;;33.13;35.15
740;BME280;354;42.694;23.336;2022-07-23T10:19:41;95490.09;;;33.27;34.24
740;BME280;354;42.694;23.336;2022-07-23T10:22:11;95479.09;;;33.23;32.48
740;BME280;354;42.694;23.336;2022-07-23T10:30:06;95467.91;;;33.41;33.43
740;BME280;354;42.694;23.336;2022-07-23T10:35:53;95475.47;;;33.63;32.45
740;BME280;354;42.694;23.336;2022-07-23T10:38:27;95465.34;;;33.64;31.11
740;BME280;354;42.694;23.336;2022-07-23T10:41:00;95470.25;;;33.74;30.92
740;BME280;354;42.694;23.336;2022-07-23T10:43:27;95472.28;;;33.77;30.30
740;BME280;354;42.694;23.336;2022-07-23T10:45:53;95468.06;;;33.48;30.04
740;BME280;354;42.694;23.336;2022-07-23T10:59:05;95443.00;;;33.58;31.25
740;BME280;354;42.694;23.336;2022-07-23T11:01:39;95421.59;;;33.60;28.61
740;BME280;354;42.694;23.336;2022-07-23T11:04:05;95434.59;;;33.82;31.57
740;BME280;354;42.694;23.336;2022-07-23T11:09:49;95441.84;;;34.10;29.20
740;BME280;354;42.694;23.336;2022-07-23T11:17:23;95421.34;;;34.36;26.97
740;BME280;354;42.694;23.336;2022-07-23T11:22:47;95420.28;;;34.40;24.32
740;BME280;354;42.694;23.336;2022-07-23T11:25:31;95408.47;;;34.55;28.48
740;BME280;354;42.694;23.336;2022-07-23T11:28:17;95409.34;;;34.59;24.08
740;BME280;354;42.694;23.336;2022-07-23T11:30:46;95414.44;;;34.61;25.11
740;BME280;354;42.694;23.336;2022-07-23T11:35:40;95413.06;;;34.71;24.91
740;BME280;354;42.694;23.336;2022-07-23T11:40:35;95403.47;;;34.57;23.73
740;BME280;354;42.694;23.336;2022-07-23T11:43:03;95401.94;;;34.60;24.02
740;BME280;354;42.694;23.336;2022-07-23T11:45:33;95399.50;;;34.55;23.88
740;BME280;354;42.694;23.336;2022-07-23T11:47:59;95393.25;;;34.54;23.96
740;BME280;354;42.694;23.336;2022-07-23T11:50:24;95398.06;;;34.61;24.17
740;BME280;354;42.694;23.336;2022-07-23T11:52:54;95389.41;;;34.78;23.15
740;BME280;354;42.694;23.336;2022-07-23T11:55:19;95381.31;;;34.63;23.47
740;BME280;354;42.694;23.336;2022-07-23T11:57:45;95387.81;;;34.77;24.84
740;BME280;354;42.694;23.336;2022-07-23T12:00:23;95388.94;;;34.73;24.50
740;BME280;354;42.694;23.336;2022-07-23T12:03:00;95389.47;;;34.82;25.16
740;BME280;354;42.694;23.336;2022-07-23T12:05:29;95387.03;;;34.77;24.27
740;BME280;354;42.694;23.336;2022-07-23T12:07:56;95365.16;;;34.54;24.30
740;BME280;354;42.694;23.336;2022-07-23T12:10:24;95386.34;;;34.60;22.58
740;BME280;354;42.694;23.336;2022-07-23T12:13:02;95373.84;;;34.59;23.32
740;BME280;354;42.694;23.336;2022-07-23T12:15:32;95376.34;;;34.68;23.09
740;BME280;354;42.694;23.336;2022-07-23T12:18:01;95371.88;;;34.79;24.18
740;BME280;354;42.694;23.336;2022-07-23T12:20:30;95375.13;;;34.66;23.10
740;BME280;354;42.694;23.336;2022-07-23T12:22:58;95353.72;;;34.68;23.76
740;BME280;354;42.694;23.336;2022-07-23T12:25:26;95363.28;;;34.81;23.67
740;BME280;354;42.694;23.336;2022-07-23T12:30:45;95359.09;;;35.06;23.09
740;BME280;354;42.694;23.336;2022-07-23T12:33:14;95360.25;;;35.05;22.44
740;BME280;354;42.694;23.336;2022-07-23T12:35:45;95359.09;;;35.06;23.17
740;BME280;354;42.694;23.336;2022-07-23T12:38:15;95350.88;;;35.06;25.11
740;BME280;354;42.694;23.336;2022-07-23T12:43:10;95346.00;;;35.19;24.14
740;BME280;354;42.694;23.336;2022-07-23T12:45:51;95348.75;;;35.19;22.53
740;BME280;354;42.694;23.336;2022-07-23T12:53:31;95338.91;;;35.15;22.35
740;BME280;354;42.694;23.336;2022-07-23T12:56:05;95342.78;;;35.14;21.35
740;BME280;354;42.694;23.336;2022-07-23T13:03:59;95342.91;;;35.21;21.54
740;BME280;354;42.694;23.336;2022-07-23T13:06:26;95342.56;;;35.22;20.01
740;BME280;354;42.694;23.336;2022-07-23T13:08:52;95333.97;;;35.24;20.25
740;BME280;354;42.694;23.336;2022-07-23T13:11:18;95331.97;;;35.21;20.59
740;BME280;354;42.694;23.336;2022-07-23T13:13:43;95334.00;;;35.27;21.87
740;BME280;354;42.694;23.336;2022-07-23T13:16:09;95324.53;;;35.21;21.29
740;BME280;354;42.694;23.336;2022-07-23T13:18:35;95327.59;;;35.16;21.93
740;BME280;354;42.694;23.336;2022-07-23T13:21:00;95330.22;;;35.09;19.88
740;BME280;354;42.694;23.336;2022-07-23T13:23:26;95329.38;;;35.05;20.38
740;BME280;354;42.694;23.336;2022-07-23T13:25:52;95327.97;;;35.15;20.85
740;BME280;354;42.694;23.336;2022-07-23T13:28:20;95328.81;;;35.19;20.96
740;BME280;354;42.694;23.336;2022-07-23T13:30:46;95319.34;;;35.13;21.20
740;BME280;354;42.694;23.336;2022-07-23T13:33:12;95317.41;;;35.13;21.28
740;BME280;354;42.694;23.336;2022-07-23T13:35:38;95317.03;;;35.15;20.74
740;BME280;354;42.694;23.336;2022-07-23T13:38:05;95321.34;;;35.16;19.77
740;BME280;354;42.694;23.336;2022-07-23T13:40:33;95314.03;;;35.23;19.72
740;BME280;354;42.694;23.336;2022-07-23T13:42:59;95318.66;;;35.19;19.97
740;BME280;354;42.694;23.336;2022-07-23T13:45:25;95321.78;;;35.18;19.82
740;BME280;354;42.694;23.336;2022-07-23T13:47:50;95313.50;;;35.14;20.41
740;BME280;354;42.694;23.336;2022-07-23T13:50:15;95313.03;;;35.08;22.10
740;BME280;354;42.694;23.336;2022-07-23T13:52:42;95311.81;;;35.06;19.67
740;BME280;354;42.694;23.336;2022-07-23T13:55:07;95313.03;;;35.08;20.02
740;BME280;354;42.694;23.336;2022-07-23T13:57:33;95311.69;;;34.99;20.91
740;BME280;354;42.694;23.336;2022-07-23T13:59:59;95309.75;;;34.99;21.90
740;BME280;354;42.694;23.336;2022-07-23T14:02:24;95305.03;;;34.96;21.14
740;BME280;354;42.694;23.336;2022-07-23T14:04:50;95299.97;;;34.98;21.71
740;BME280;354;42.694;23.336;2022-07-23T14:07:16;95302.56;;;34.91;21.71
740;BME280;354;42.694;23.336;2022-07-23T14:09:41;95304.59;;;34.94;21.83
740;BME280;354;42.694;23.336;2022-07-23T14:12:07;95298.88;;;34.80;23.62
740;BME280;354;42.694;23.336;2022-07-23T14:14:33;95304.44;;;34.87;20.66
740;BME280;354;42.694;23.336;2022-07-23T14:16:58;95302.19;;;34.93;20.93
740;BME280;354;42.694;23.336;2022-07-23T14:19:24;95298.13;;;34.83;20.70
740;BME280;354;42.694;23.336;2022-07-23T14:21:49;95301.66;;;34.83;20.87
740;BME280;354;42.694;23.336;2022-07-23T14:24:15;95298.13;;;34.83;23.56
740;BME280;354;42.694;23.336;2022-07-23T14:26:41;95294.56;;;34.79;22.55
740;BME280;354;42.694;23.336;2022-07-23T14:29:07;95296.94;;;34.80;22.34